sensor_id;sensor_type;location;lat;lon;timestamp;temperature;humidity
21778;DHT22;11050;52.222;20.916;2023-08-06T00:00:39;18.90;99.90
21778;DHT22;11050;52.222;20.916;2023-08-06T00:03:05;18.90;99.90
21778;DHT22;11050;52.222;20.916;2023-08-06T00:05:31;18.90;99.90
21778;DHT22;11050;52.222;20.916;2023-08-06T00:07:57;18.90;99.90
21778;DHT22;11050;52.222;20.916;2023-08-06T00:10:22;18.90;99.90
21778;DHT22;11050;52.222;20.916;2023-08-06T00:12:48;18.90;99.90
21778;DHT22;11050;52.222;20.916;2023-08-06T00:15:14;18.90;99.90
21778;DHT22;11050;52.222;20.916;2023-08-06T00:17:40;18.90;99.90
21778;DHT22;11050;52.222;20.916;2023-08-06T00:20:06;18.90;99.90
21778;DHT22;11050;52.222;20.916;2023-08-06T00:22:34;18.90;99.90
21778;DHT22;11050;52.222;20.916;2023-08-06T00:25:00;18.90;99.90
21778;DHT22;11050;52.222;20.916;2023-08-06T00:27:26;18.80;99.90
21778;DHT22;11050;52.222;20.916;2023-08-06T00:29:52;18.80;99.90
21778;DHT22;11050;52.222;20.916;2023-08-06T00:32:18;18.80;99.90
21778;DHT22;11050;52.222;20.916;2023-08-06T00:34:44;18.80;99.90
21778;DHT22;11050;52.222;20.916;2023-08-06T00:37:10;18.70;99.90
21778;DHT22;11050;52.222;20.916;2023-08-06T00:39:35;18.70;99.90
21778;DHT22;11050;52.222;20.916;2023-08-06T00:42:01;18.70;99.90
21778;DHT22;11050;52.222;20.916;2023-08-06T00:44:27;18.70;99.90
21778;DHT22;11050;52.222;20.916;2023-08-06T00:46:53;18.60;99.90
21778;DHT22;11050;52.222;20.916;2023-08-06T00:49:19;18.70;99.90
21778;DHT22;11050;52.222;20.916;2023-08-06T00:51:46;18.70;99.90
21778;DHT22;11050;52.222;20.916;2023-08-06T00:54:13;18.60;99.90
21778;DHT22;11050;52.222;20.916;2023-08-06T00:56:39;18.60;99.90
21778;DHT22;11050;52.222;20.916;2023-08-06T00:59:07;18.60;99.90
21778;DHT22;11050;52.222;20.916;2023-08-06T01:01:36;18.60;99.90
21778;DHT22;11050;52.222;20.916;2023-08-06T01:04:01;18.60;99.90
21778;DHT22;11050;52.222;20.916;2023-08-06T01:06:51;18.60;99.90
21778;DHT22;11050;52.222;20.916;2023-08-06T01:09:50;18.50;99.90
21778;DHT22;11050;52.222;20.916;2023-08-06T01:15:41;18.50;99.90
21778;DHT22;11050;52.222;20.916;2023-08-06T01:18:11;18.50;99.90
21778;DHT22;11050;52.222;20.916;2023-08-06T01:20:37;18.50;99.90
21778;DHT22;11050;52.222;20.916;2023-08-06T01:23:03;18.60;99.90
21778;DHT22;11050;52.222;20.916;2023-08-06T01:31:30;18.60;99.90
21778;DHT22;11050;52.222;20.916;2023-08-06T01:33:58;18.60;99.90
21778;DHT22;11050;52.222;20.916;2023-08-06T01:36:26;18.60;99.90
21778;DHT22;11050;52.222;20.916;2023-08-06T01:38:53;18.60;99.90
21778;DHT22;11050;52.222;20.916;2023-08-06T01:41:19;18.50;99.90
21778;DHT22;11050;52.222;20.916;2023-08-06T01:43:45;18.50;99.90
21778;DHT22;11050;52.222;20.916;2023-08-06T01:46:11;18.60;99.90
21778;DHT22;11050;52.222;20.916;2023-08-06T01:48:37;18.50;99.90
21778;DHT22;11050;52.222;20.916;2023-08-06T01:51:06;18.50;99.90
21778;DHT22;11050;52.222;20.916;2023-08-06T01:53:32;18.50;99.90
21778;DHT22;11050;52.222;20.916;2023-08-06T01:55:59;18.60;99.90
21778;DHT22;11050;52.222;20.916;2023-08-06T01:58:25;18.50;99.90
21778;DHT22;11050;52.222;20.916;2023-08-06T02:00:50;18.50;99.90
21778;DHT22;11050;52.222;20.916;2023-08-06T02:03:16;18.60;99.90
21778;DHT22;11050;52.222;20.916;2023-08-06T02:05:42;18.60;99.90
21778;DHT22;11050;52.222;20.916;2023-08-06T02:08:08;18.60;99.90
21778;DHT22;11050;52.222;20.916;2023-08-06T02:10:34;18.60;99.90
21778;DHT22;11050;52.222;20.916;2023-08-06T02:13:00;18.60;99.90
21778;DHT22;11050;52.222;20.916;2023-08-06T02:15:26;18.60;99.90
21778;DHT22;11050;52.222;20.916;2023-08-06T02:17:51;18.60;99.90
21778;DHT22;11050;52.222;20.916;2023-08-06T02:20:17;18.60;99.90
21778;DHT22;11050;52.222;20.916;2023-08-06T02:22:43;18.60;99.90
21778;DHT22;11050;52.222;20.916;2023-08-06T02:25:09;18.70;99.90
21778;DHT22;11050;52.222;20.916;2023-08-06T02:27:35;18.60;99.90
21778;DHT22;11050;52.222;20.916;2023-08-06T02:30:01;18.70;99.90
21778;DHT22;11050;52.222;20.916;2023-08-06T02:32:28;18.70;99.90
21778;DHT22;11050;52.222;20.916;2023-08-06T02:34:55;18.70;99.90
21778;DHT22;11050;52.222;20.916;2023-08-06T02:37:21;18.70;99.90
21778;DHT22;11050;52.222;20.916;2023-08-06T02:39:47;18.70;99.90
21778;DHT22;11050;52.222;20.916;2023-08-06T02:42:12;18.70;99.90
21778;DHT22;11050;52.222;20.916;2023-08-06T02:44:38;18.70;99.90
21778;DHT22;11050;52.222;20.916;2023-08-06T02:47:04;18.70;99.90
21778;DHT22;11050;52.222;20.916;2023-08-06T02:49:30;18.70;99.90
21778;DHT22;11050;52.222;20.916;2023-08-06T02:51:56;18.70;99.90
21778;DHT22;11050;52.222;20.916;2023-08-06T02:54:22;18.70;99.90
21778;DHT22;11050;52.222;20.916;2023-08-06T02:56:47;18.80;99.90
21778;DHT22;11050;52.222;20.916;2023-08-06T02:59:13;18.80;99.90
21778;DHT22;11050;52.222;20.916;2023-08-06T03:01:39;18.80;99.90
21778;DHT22;11050;52.222;20.916;2023-08-06T03:04:05;18.80;99.90
21778;DHT22;11050;52.222;20.916;2023-08-06T03:06:31;18.80;99.90
21778;DHT22;11050;52.222;20.916;2023-08-06T03:08:57;18.80;99.90
21778;DHT22;11050;52.222;20.916;2023-08-06T03:11:23;18.80;99.90
21778;DHT22;11050;52.222;20.916;2023-08-06T03:13:49;18.80;99.90
21778;DHT22;11050;52.222;20.916;2023-08-06T03:16:14;18.90;99.90
21778;DHT22;11050;52.222;20.916;2023-08-06T03:18:40;18.90;99.90
21778;DHT22;11050;52.222;20.916;2023-08-06T03:21:06;18.80;99.90
21778;DHT22;11050;52.222;20.916;2023-08-06T03:23:32;18.90;99.90
21778;DHT22;11050;52.222;20.916;2023-08-06T03:26:02;18.90;99.90
21778;DHT22;11050;52.222;20.916;2023-08-06T03:28:28;18.90;99.90
21778;DHT22;11050;52.222;20.916;2023-08-06T03:31:03;18.90;99.90
21778;DHT22;11050;52.222;20.916;2023-08-06T03:33:30;18.90;99.90
21778;DHT22;11050;52.222;20.916;2023-08-06T03:35:56;19.00;99.90
21778;DHT22;11050;52.222;20.916;2023-08-06T03:38:22;19.00;99.90
21778;DHT22;11050;52.222;20.916;2023-08-06T03:40:48;19.00;99.90
21778;DHT22;11050;52.222;20.916;2023-08-06T03:43:15;19.00;99.90
21778;DHT22;11050;52.222;20.916;2023-08-06T03:45:41;19.10;99.90
21778;DHT22;11050;52.222;20.916;2023-08-06T03:48:08;19.00;99.90
21778;DHT22;11050;52.222;20.916;2023-08-06T03:50:34;19.10;99.90
21778;DHT22;11050;52.222;20.916;2023-08-06T03:53:00;19.10;99.90
21778;DHT22;11050;52.222;20.916;2023-08-06T03:55:27;19.10;99.90
21778;DHT22;11050;52.222;20.916;2023-08-06T03:57:53;19.20;99.90
21778;DHT22;11050;52.222;20.916;2023-08-06T04:00:18;19.20;99.90
21778;DHT22;11050;52.222;20.916;2023-08-06T04:02:44;19.20;99.90
21778;DHT22;11050;52.222;20.916;2023-08-06T04:05:10;19.20;99.90
21778;DHT22;11050;52.222;20.916;2023-08-06T04:07:36;19.20;99.90
21778;DHT22;11050;52.222;20.916;2023-08-06T04:10:03;19.20;99.90
21778;DHT22;11050;52.222;20.916;2023-08-06T04:12:30;19.30;99.90
21778;DHT22;11050;52.222;20.916;2023-08-06T04:14:58;19.30;99.90
21778;DHT22;11050;52.222;20.916;2023-08-06T04:17:24;19.40;99.90
21778;DHT22;11050;52.222;20.916;2023-08-06T04:19:51;19.40;99.90
21778;DHT22;11050;52.222;20.916;2023-08-06T04:22:18;19.40;99.90
21778;DHT22;11050;52.222;20.916;2023-08-06T04:24:45;19.40;99.90
21778;DHT22;11050;52.222;20.916;2023-08-06T04:27:12;19.40;99.90
21778;DHT22;11050;52.222;20.916;2023-08-06T04:29:39;19.50;99.90
21778;DHT22;11050;52.222;20.916;2023-08-06T04:32:06;19.50;99.90
21778;DHT22;11050;52.222;20.916;2023-08-06T04:34:34;19.60;99.90
21778;DHT22;11050;52.222;20.916;2023-08-06T04:37:02;19.60;99.90
21778;DHT22;11050;52.222;20.916;2023-08-06T04:39:29;19.60;99.90
21778;DHT22;11050;52.222;20.916;2023-08-06T04:41:56;19.70;99.90
21778;DHT22;11050;52.222;20.916;2023-08-06T04:44:25;19.70;99.90
21778;DHT22;11050;52.222;20.916;2023-08-06T04:46:51;19.80;99.90
21778;DHT22;11050;52.222;20.916;2023-08-06T04:49:18;19.80;99.90
21778;DHT22;11050;52.222;20.916;2023-08-06T04:51:45;19.90;99.90
21778;DHT22;11050;52.222;20.916;2023-08-06T04:54:11;19.90;99.90
21778;DHT22;11050;52.222;20.916;2023-08-06T04:56:37;20.00;99.90
21778;DHT22;11050;52.222;20.916;2023-08-06T04:59:02;20.10;99.90
21778;DHT22;11050;52.222;20.916;2023-08-06T05:01:28;20.10;99.90
21778;DHT22;11050;52.222;20.916;2023-08-06T05:03:54;20.20;99.90
21778;DHT22;11050;52.222;20.916;2023-08-06T05:06:20;20.20;99.90
21778;DHT22;11050;52.222;20.916;2023-08-06T05:08:45;20.30;99.90
21778;DHT22;11050;52.222;20.916;2023-08-06T05:11:11;20.30;99.90
21778;DHT22;11050;52.222;20.916;2023-08-06T05:13:37;20.40;99.90
21778;DHT22;11050;52.222;20.916;2023-08-06T05:16:03;20.40;99.90
21778;DHT22;11050;52.222;20.916;2023-08-06T05:18:28;20.50;99.90
21778;DHT22;11050;52.222;20.916;2023-08-06T05:20:55;20.50;99.90
21778;DHT22;11050;52.222;20.916;2023-08-06T05:23:21;20.50;99.90
21778;DHT22;11050;52.222;20.916;2023-08-06T05:25:47;20.60;99.90
21778;DHT22;11050;52.222;20.916;2023-08-06T05:28:13;20.70;99.90
21778;DHT22;11050;52.222;20.916;2023-08-06T05:30:39;20.70;99.90
21778;DHT22;11050;52.222;20.916;2023-08-06T05:33:05;20.70;99.90
21778;DHT22;11050;52.222;20.916;2023-08-06T05:35:31;20.80;99.90
21778;DHT22;11050;52.222;20.916;2023-08-06T05:37:57;20.80;99.90
21778;DHT22;11050;52.222;20.916;2023-08-06T05:40:23;20.90;99.90
21778;DHT22;11050;52.222;20.916;2023-08-06T05:42:51;20.90;99.90
21778;DHT22;11050;52.222;20.916;2023-08-06T05:45:18;21.00;99.90
21778;DHT22;11050;52.222;20.916;2023-08-06T05:47:44;21.10;99.90
21778;DHT22;11050;52.222;20.916;2023-08-06T05:50:10;21.20;99.90
21778;DHT22;11050;52.222;20.916;2023-08-06T05:52:35;21.20;99.90
21778;DHT22;11050;52.222;20.916;2023-08-06T05:55:01;21.30;99.90
21778;DHT22;11050;52.222;20.916;2023-08-06T05:57:27;21.30;99.90
21778;DHT22;11050;52.222;20.916;2023-08-06T05:59:53;21.40;99.90
21778;DHT22;11050;52.222;20.916;2023-08-06T06:02:18;21.50;99.90
21778;DHT22;11050;52.222;20.916;2023-08-06T06:04:44;21.50;99.90
21778;DHT22;11050;52.222;20.916;2023-08-06T06:07:10;21.60;99.90
21778;DHT22;11050;52.222;20.916;2023-08-06T06:09:35;21.70;99.90
21778;DHT22;11050;52.222;20.916;2023-08-06T06:12:01;21.80;99.90
21778;DHT22;11050;52.222;20.916;2023-08-06T06:14:27;21.90;99.90
21778;DHT22;11050;52.222;20.916;2023-08-06T06:16:53;22.00;99.90
21778;DHT22;11050;52.222;20.916;2023-08-06T06:19:19;22.10;99.90
21778;DHT22;11050;52.222;20.916;2023-08-06T06:21:44;22.20;99.90
21778;DHT22;11050;52.222;20.916;2023-08-06T06:24:10;22.30;99.90
21778;DHT22;11050;52.222;20.916;2023-08-06T06:26:36;22.30;99.90
21778;DHT22;11050;52.222;20.916;2023-08-06T06:29:01;22.40;99.90
21778;DHT22;11050;52.222;20.916;2023-08-06T06:31:27;22.50;99.90
21778;DHT22;11050;52.222;20.916;2023-08-06T06:33:53;22.50;99.90
21778;DHT22;11050;52.222;20.916;2023-08-06T06:36:20;22.60;99.90
21778;DHT22;11050;52.222;20.916;2023-08-06T06:38:46;22.70;99.90
21778;DHT22;11050;52.222;20.916;2023-08-06T06:41:12;22.80;99.90
21778;DHT22;11050;52.222;20.916;2023-08-06T06:43:38;22.80;99.90
21778;DHT22;11050;52.222;20.916;2023-08-06T06:46:05;23.00;99.90
21778;DHT22;11050;52.222;20.916;2023-08-06T06:48:32;23.10;99.90
21778;DHT22;11050;52.222;20.916;2023-08-06T06:50:59;23.20;99.90
21778;DHT22;11050;52.222;20.916;2023-08-06T06:53:25;23.30;99.90
21778;DHT22;11050;52.222;20.916;2023-08-06T06:55:55;23.40;99.90
21778;DHT22;11050;52.222;20.916;2023-08-06T06:58:21;23.60;99.90
21778;DHT22;11050;52.222;20.916;2023-08-06T07:00:47;23.60;99.90
21778;DHT22;11050;52.222;20.916;2023-08-06T07:03:16;23.80;99.90
21778;DHT22;11050;52.222;20.916;2023-08-06T07:05:45;23.90;99.90
21778;DHT22;11050;52.222;20.916;2023-08-06T07:08:11;24.00;99.90
21778;DHT22;11050;52.222;20.916;2023-08-06T07:10:37;24.10;99.90
21778;DHT22;11050;52.222;20.916;2023-08-06T07:13:03;24.20;99.90
21778;DHT22;11050;52.222;20.916;2023-08-06T07:15:29;24.40;99.90
21778;DHT22;11050;52.222;20.916;2023-08-06T07:17:55;24.50;99.90
21778;DHT22;11050;52.222;20.916;2023-08-06T07:20:20;24.60;99.90
21778;DHT22;11050;52.222;20.916;2023-08-06T07:22:46;24.70;99.90
21778;DHT22;11050;52.222;20.916;2023-08-06T07:25:12;24.80;99.90
21778;DHT22;11050;52.222;20.916;2023-08-06T07:27:38;24.80;99.90
21778;DHT22;11050;52.222;20.916;2023-08-06T07:30:04;24.90;99.90
21778;DHT22;11050;52.222;20.916;2023-08-06T07:32:31;25.00;99.90
21778;DHT22;11050;52.222;20.916;2023-08-06T07:34:57;25.10;99.90
21778;DHT22;11050;52.222;20.916;2023-08-06T07:37:26;25.10;99.90
21778;DHT22;11050;52.222;20.916;2023-08-06T07:39:56;25.30;99.90
21778;DHT22;11050;52.222;20.916;2023-08-06T07:42:22;25.40;99.90
21778;DHT22;11050;52.222;20.916;2023-08-06T07:44:55;25.60;99.90
21778;DHT22;11050;52.222;20.916;2023-08-06T07:47:22;25.70;99.90
21778;DHT22;11050;52.222;20.916;2023-08-06T07:49:48;25.80;99.90
21778;DHT22;11050;52.222;20.916;2023-08-06T07:52:14;25.90;99.90
21778;DHT22;11050;52.222;20.916;2023-08-06T07:54:39;25.90;99.90
21778;DHT22;11050;52.222;20.916;2023-08-06T07:57:05;26.00;99.90
21778;DHT22;11050;52.222;20.916;2023-08-06T07:59:31;26.10;99.90
21778;DHT22;11050;52.222;20.916;2023-08-06T08:01:57;26.20;99.90
21778;DHT22;11050;52.222;20.916;2023-08-06T08:04:24;26.30;99.90
21778;DHT22;11050;52.222;20.916;2023-08-06T08:06:50;26.30;99.90
21778;DHT22;11050;52.222;20.916;2023-08-06T08:09:15;26.40;99.90
21778;DHT22;11050;52.222;20.916;2023-08-06T08:11:42;26.50;99.90
21778;DHT22;11050;52.222;20.916;2023-08-06T08:14:07;26.70;99.90
21778;DHT22;11050;52.222;20.916;2023-08-06T08:16:33;26.70;99.90
21778;DHT22;11050;52.222;20.916;2023-08-06T08:18:59;26.90;99.90
21778;DHT22;11050;52.222;20.916;2023-08-06T08:21:25;27.10;99.90
21778;DHT22;11050;52.222;20.916;2023-08-06T08:23:51;27.20;99.90
21778;DHT22;11050;52.222;20.916;2023-08-06T08:26:17;27.20;99.90
21778;DHT22;11050;52.222;20.916;2023-08-06T08:28:43;27.40;99.90
21778;DHT22;11050;52.222;20.916;2023-08-06T08:31:10;27.50;99.90
21778;DHT22;11050;52.222;20.916;2023-08-06T08:33:37;27.50;99.90
21778;DHT22;11050;52.222;20.916;2023-08-06T08:36:04;27.70;99.90
21778;DHT22;11050;52.222;20.916;2023-08-06T08:38:29;27.80;99.90
21778;DHT22;11050;52.222;20.916;2023-08-06T08:40:55;27.90;99.90
21778;DHT22;11050;52.222;20.916;2023-08-06T08:43:22;28.00;99.90
21778;DHT22;11050;52.222;20.916;2023-08-06T08:45:52;28.00;99.90
21778;DHT22;11050;52.222;20.916;2023-08-06T08:48:24;28.00;99.90
21778;DHT22;11050;52.222;20.916;2023-08-06T08:50:51;28.10;99.90
21778;DHT22;11050;52.222;20.916;2023-08-06T08:53:17;28.10;99.90
21778;DHT22;11050;52.222;20.916;2023-08-06T08:55:47;28.20;99.90
21778;DHT22;11050;52.222;20.916;2023-08-06T08:58:14;28.20;99.90
21778;DHT22;11050;52.222;20.916;2023-08-06T09:00:42;28.30;99.90
21778;DHT22;11050;52.222;20.916;2023-08-06T09:03:08;28.40;99.90
21778;DHT22;11050;52.222;20.916;2023-08-06T09:05:34;28.50;99.90
21778;DHT22;11050;52.222;20.916;2023-08-06T09:08:04;28.60;99.90
21778;DHT22;11050;52.222;20.916;2023-08-06T09:10:31;28.60;99.90
21778;DHT22;11050;52.222;20.916;2023-08-06T09:12:57;28.70;99.90
21778;DHT22;11050;52.222;20.916;2023-08-06T09:15:27;28.70;99.90
21778;DHT22;11050;52.222;20.916;2023-08-06T09:17:54;28.80;99.90
21778;DHT22;11050;52.222;20.916;2023-08-06T09:20:20;28.90;99.90
21778;DHT22;11050;52.222;20.916;2023-08-06T09:22:47;29.00;99.90
21778;DHT22;11050;52.222;20.916;2023-08-06T09:25:24;29.10;99.90
21778;DHT22;11050;52.222;20.916;2023-08-06T09:27:51;29.30;99.90
21778;DHT22;11050;52.222;20.916;2023-08-06T09:30:31;29.40;99.90
21778;DHT22;11050;52.222;20.916;2023-08-06T09:32:58;29.60;99.90
21778;DHT22;11050;52.222;20.916;2023-08-06T09:35:24;29.70;99.90
21778;DHT22;11050;52.222;20.916;2023-08-06T09:37:49;29.90;99.90
21778;DHT22;11050;52.222;20.916;2023-08-06T09:40:31;30.00;99.90
21778;DHT22;11050;52.222;20.916;2023-08-06T09:42:58;30.00;99.90
21778;DHT22;11050;52.222;20.916;2023-08-06T09:45:36;30.00;99.90
21778;DHT22;11050;52.222;20.916;2023-08-06T09:48:07;30.10;99.90
21778;DHT22;11050;52.222;20.916;2023-08-06T09:50:37;30.20;99.90
21778;DHT22;11050;52.222;20.916;2023-08-06T09:53:05;30.30;99.90
21778;DHT22;11050;52.222;20.916;2023-08-06T09:55:34;30.50;99.90
21778;DHT22;11050;52.222;20.916;2023-08-06T09:58:00;30.60;99.90
21778;DHT22;11050;52.222;20.916;2023-08-06T10:00:26;30.70;99.90
21778;DHT22;11050;52.222;20.916;2023-08-06T10:02:54;30.90;99.90
21778;DHT22;11050;52.222;20.916;2023-08-06T10:05:25;31.00;99.90
21778;DHT22;11050;52.222;20.916;2023-08-06T10:07:52;31.00;98.50
21778;DHT22;11050;52.222;20.916;2023-08-06T10:10:18;31.00;94.70
21778;DHT22;11050;52.222;20.916;2023-08-06T10:12:50;30.90;96.10
21778;DHT22;11050;52.222;20.916;2023-08-06T10:15:24;30.90;98.50
21778;DHT22;11050;52.222;20.916;2023-08-06T10:17:54;31.00;98.40
21778;DHT22;11050;52.222;20.916;2023-08-06T10:20:23;31.10;99.30
21778;DHT22;11050;52.222;20.916;2023-08-06T10:23:06;31.20;96.60
21778;DHT22;11050;52.222;20.916;2023-08-06T10:25:41;31.20;96.50
21778;DHT22;11050;52.222;20.916;2023-08-06T10:28:11;31.20;96.70
21778;DHT22;11050;52.222;20.916;2023-08-06T10:30:46;31.10;96.70
21778;DHT22;11050;52.222;20.916;2023-08-06T10:33:13;31.00;96.90
21778;DHT22;11050;52.222;20.916;2023-08-06T10:35:47;31.10;95.50
21778;DHT22;11050;52.222;20.916;2023-08-06T10:38:22;31.00;93.00
21778;DHT22;11050;52.222;20.916;2023-08-06T10:43:34;30.90;93.40
21778;DHT22;11050;52.222;20.916;2023-08-06T10:46:09;30.90;94.10
21778;DHT22;11050;52.222;20.916;2023-08-06T10:48:40;30.90;92.90
21778;DHT22;11050;52.222;20.916;2023-08-06T10:51:14;30.90;94.70
21778;DHT22;11050;52.222;20.916;2023-08-06T10:53:44;30.90;90.90
21778;DHT22;11050;52.222;20.916;2023-08-06T10:56:16;30.80;91.80
21778;DHT22;11050;52.222;20.916;2023-08-06T10:58:43;30.60;91.90
21778;DHT22;11050;52.222;20.916;2023-08-06T11:01:10;30.50;91.80
21778;DHT22;11050;52.222;20.916;2023-08-06T11:03:37;30.30;91.70
21778;DHT22;11050;52.222;20.916;2023-08-06T11:06:06;30.20;92.80
21778;DHT22;11050;52.222;20.916;2023-08-06T11:08:42;30.10;94.30
21778;DHT22;11050;52.222;20.916;2023-08-06T11:11:15;30.00;94.80
21778;DHT22;11050;52.222;20.916;2023-08-06T11:13:45;30.00;95.40
21778;DHT22;11050;52.222;20.916;2023-08-06T11:16:14;30.00;94.90
21778;DHT22;11050;52.222;20.916;2023-08-06T11:18:41;30.00;95.70
21778;DHT22;11050;52.222;20.916;2023-08-06T11:21:08;30.00;96.10
21778;DHT22;11050;52.222;20.916;2023-08-06T11:23:34;30.30;95.30
21778;DHT22;11050;52.222;20.916;2023-08-06T11:26:01;30.50;93.30
21778;DHT22;11050;52.222;20.916;2023-08-06T11:28:27;30.70;90.90
21778;DHT22;11050;52.222;20.916;2023-08-06T11:30:53;30.90;88.90
21778;DHT22;11050;52.222;20.916;2023-08-06T11:33:23;31.00;83.50
21778;DHT22;11050;52.222;20.916;2023-08-06T11:35:53;31.10;85.00
21778;DHT22;11050;52.222;20.916;2023-08-06T11:38:20;31.10;87.40
21778;DHT22;11050;52.222;20.916;2023-08-06T11:40:47;31.20;86.30
21778;DHT22;11050;52.222;20.916;2023-08-06T11:43:14;31.60;86.70
21778;DHT22;11050;52.222;20.916;2023-08-06T11:45:40;31.90;84.20
21778;DHT22;11050;52.222;20.916;2023-08-06T11:48:07;32.30;79.30
21778;DHT22;11050;52.222;20.916;2023-08-06T11:50:38;32.60;76.20
21778;DHT22;11050;52.222;20.916;2023-08-06T11:53:04;32.90;70.80
21778;DHT22;11050;52.222;20.916;2023-08-06T11:55:30;33.20;66.80
21778;DHT22;11050;52.222;20.916;2023-08-06T11:57:57;33.50;65.70
21778;DHT22;11050;52.222;20.916;2023-08-06T12:00:25;33.80;62.40
21778;DHT22;11050;52.222;20.916;2023-08-06T12:02:51;34.10;60.90
21778;DHT22;11050;52.222;20.916;2023-08-06T12:05:22;34.20;58.90
21778;DHT22;11050;52.222;20.916;2023-08-06T12:07:52;34.50;58.20
21778;DHT22;11050;52.222;20.916;2023-08-06T12:10:22;34.70;58.50
21778;DHT22;11050;52.222;20.916;2023-08-06T12:12:50;34.90;54.80
21778;DHT22;11050;52.222;20.916;2023-08-06T12:15:16;34.70;52.30
21778;DHT22;11050;52.222;20.916;2023-08-06T12:17:42;34.50;52.40
21778;DHT22;11050;52.222;20.916;2023-08-06T12:20:08;34.30;52.90
21778;DHT22;11050;52.222;20.916;2023-08-06T12:22:35;33.90;54.10
21778;DHT22;11050;52.222;20.916;2023-08-06T12:25:05;33.60;54.40
21778;DHT22;11050;52.222;20.916;2023-08-06T12:27:36;33.20;55.50
21778;DHT22;11050;52.222;20.916;2023-08-06T12:30:03;32.90;57.00
21778;DHT22;11050;52.222;20.916;2023-08-06T12:32:31;32.70;58.20
21778;DHT22;11050;52.222;20.916;2023-08-06T12:34:57;32.40;59.30
21778;DHT22;11050;52.222;20.916;2023-08-06T12:37:24;32.10;60.10
21778;DHT22;11050;52.222;20.916;2023-08-06T12:39:50;31.80;61.50
21778;DHT22;11050;52.222;20.916;2023-08-06T12:42:17;31.50;61.70
21778;DHT22;11050;52.222;20.916;2023-08-06T12:44:43;31.20;62.70
21778;DHT22;11050;52.222;20.916;2023-08-06T12:47:09;30.90;64.90
21778;DHT22;11050;52.222;20.916;2023-08-06T12:49:35;30.60;67.80
21778;DHT22;11050;52.222;20.916;2023-08-06T12:52:01;30.40;72.80
21778;DHT22;11050;52.222;20.916;2023-08-06T12:54:28;30.10;74.10
21778;DHT22;11050;52.222;20.916;2023-08-06T12:56:54;30.00;79.30
21778;DHT22;11050;52.222;20.916;2023-08-06T12:59:20;29.90;82.60
21778;DHT22;11050;52.222;20.916;2023-08-06T13:01:46;29.80;83.80
21778;DHT22;11050;52.222;20.916;2023-08-06T13:04:14;29.80;84.30
21778;DHT22;11050;52.222;20.916;2023-08-06T13:06:39;29.80;82.60
21778;DHT22;11050;52.222;20.916;2023-08-06T13:09:06;29.80;81.80
21778;DHT22;11050;52.222;20.916;2023-08-06T13:11:34;29.80;84.20
21778;DHT22;11050;52.222;20.916;2023-08-06T13:14:09;29.80;83.60
21778;DHT22;11050;52.222;20.916;2023-08-06T13:16:39;29.80;82.50
21778;DHT22;11050;52.222;20.916;2023-08-06T13:19:06;29.80;82.10
21778;DHT22;11050;52.222;20.916;2023-08-06T13:21:33;29.90;82.50
21778;DHT22;11050;52.222;20.916;2023-08-06T13:24:03;30.00;78.10
21778;DHT22;11050;52.222;20.916;2023-08-06T13:26:30;30.30;78.80
21778;DHT22;11050;52.222;20.916;2023-08-06T13:28:59;30.80;78.30
21778;DHT22;11050;52.222;20.916;2023-08-06T13:31:27;31.40;75.20
21778;DHT22;11050;52.222;20.916;2023-08-06T13:33:56;31.80;73.10
21778;DHT22;11050;52.222;20.916;2023-08-06T13:36:24;32.30;70.70
21778;DHT22;11050;52.222;20.916;2023-08-06T13:38:50;32.60;65.00
21778;DHT22;11050;52.222;20.916;2023-08-06T13:41:16;32.70;63.10
21778;DHT22;11050;52.222;20.916;2023-08-06T13:43:42;32.70;62.40
21778;DHT22;11050;52.222;20.916;2023-08-06T13:46:09;32.70;62.90
21778;DHT22;11050;52.222;20.916;2023-08-06T13:48:40;32.40;63.90
21778;DHT22;11050;52.222;20.916;2023-08-06T13:51:05;32.10;64.70
21778;DHT22;11050;52.222;20.916;2023-08-06T13:53:31;31.90;67.20
21778;DHT22;11050;52.222;20.916;2023-08-06T13:55:57;31.60;68.70
21778;DHT22;11050;52.222;20.916;2023-08-06T13:58:23;31.40;70.70
21778;DHT22;11050;52.222;20.916;2023-08-06T14:00:49;31.30;74.00
21778;DHT22;11050;52.222;20.916;2023-08-06T14:03:18;31.10;76.00
21778;DHT22;11050;52.222;20.916;2023-08-06T14:05:44;30.80;80.30
21778;DHT22;11050;52.222;20.916;2023-08-06T14:08:10;30.60;82.10
21778;DHT22;11050;52.222;20.916;2023-08-06T14:10:36;30.40;86.10
21778;DHT22;11050;52.222;20.916;2023-08-06T14:13:02;30.40;89.40
21778;DHT22;11050;52.222;20.916;2023-08-06T14:15:27;30.50;90.20
21778;DHT22;11050;52.222;20.916;2023-08-06T14:17:53;30.90;84.70
21778;DHT22;11050;52.222;20.916;2023-08-06T14:20:19;31.30;79.90
21778;DHT22;11050;52.222;20.916;2023-08-06T14:22:44;31.90;77.20
21778;DHT22;11050;52.222;20.916;2023-08-06T14:25:10;32.20;68.00
21778;DHT22;11050;52.222;20.916;2023-08-06T14:27:36;32.20;65.10
21778;DHT22;11050;52.222;20.916;2023-08-06T14:30:07;31.90;64.40
21778;DHT22;11050;52.222;20.916;2023-08-06T14:32:33;31.50;65.60
21778;DHT22;11050;52.222;20.916;2023-08-06T14:34:59;31.10;67.20
21778;DHT22;11050;52.222;20.916;2023-08-06T14:37:25;30.70;68.70
21778;DHT22;11050;52.222;20.916;2023-08-06T14:39:51;30.40;69.40
21778;DHT22;11050;52.222;20.916;2023-08-06T14:42:17;30.10;74.80
21778;DHT22;11050;52.222;20.916;2023-08-06T14:44:45;29.90;79.00
21778;DHT22;11050;52.222;20.916;2023-08-06T14:47:11;29.80;84.90
21778;DHT22;11050;52.222;20.916;2023-08-06T14:49:38;29.80;87.20
21778;DHT22;11050;52.222;20.916;2023-08-06T14:52:04;29.90;92.40
21778;DHT22;11050;52.222;20.916;2023-08-06T14:54:31;29.90;93.90
21778;DHT22;11050;52.222;20.916;2023-08-06T14:56:56;29.70;94.90
21778;DHT22;11050;52.222;20.916;2023-08-06T14:59:22;29.70;95.50
21778;DHT22;11050;52.222;20.916;2023-08-06T15:01:48;29.80;95.30
21778;DHT22;11050;52.222;20.916;2023-08-06T15:04:14;29.80;94.20
21778;DHT22;11050;52.222;20.916;2023-08-06T15:06:40;29.70;92.80
21778;DHT22;11050;52.222;20.916;2023-08-06T15:09:06;29.60;93.80
21778;DHT22;11050;52.222;20.916;2023-08-06T15:11:33;29.50;93.80
21778;DHT22;11050;52.222;20.916;2023-08-06T15:13:58;29.50;94.40
21778;DHT22;11050;52.222;20.916;2023-08-06T15:16:26;29.80;94.60
21778;DHT22;11050;52.222;20.916;2023-08-06T15:18:52;30.10;93.00
21778;DHT22;11050;52.222;20.916;2023-08-06T15:21:18;30.60;87.40
21778;DHT22;11050;52.222;20.916;2023-08-06T15:23:44;31.10;80.70
21778;DHT22;11050;52.222;20.916;2023-08-06T15:26:09;31.40;72.70